createdAt,value
2016-10-18T00:00:55.122Z,24.03
2016-10-18T00:02:06.354Z,24.12
2016-10-18T00:03:17.240Z,24.03
2016-10-18T00:04:27.951Z,24.1
2016-10-18T00:05:38.639Z,24.12
2016-10-18T00:06:49.346Z,24.06
2016-10-18T00:08:00.057Z,24.05
2016-10-18T00:09:10.767Z,24
2016-10-18T00:10:21.489Z,24.13
2016-10-18T00:11:32.193Z,24.12
2016-10-18T00:12:42.913Z,24.09
2016-10-18T00:13:53.637Z,24.09
2016-10-18T00:15:04.360Z,24.13
2016-10-18T00:16:15.616Z,24.03
2016-10-18T00:17:26.901Z,24.1
2016-10-18T00:18:37.636Z,24.08
2016-10-18T00:19:48.337Z,24.24
2016-10-18T00:20:59.060Z,24.16
2016-10-18T00:22:09.779Z,24.18
2016-10-18T00:23:20.483Z,24.18
2016-10-18T00:24:31.184Z,24.27
2016-10-18T00:25:41.923Z,24.18
2016-10-18T00:26:52.683Z,24.27
2016-10-18T00:28:03.418Z,24.3
2016-10-18T00:29:14.134Z,24.32
2016-10-18T00:30:24.820Z,24.28
2016-10-18T00:31:35.530Z,24.31
2016-10-18T00:32:46.255Z,24.22
2016-10-18T00:33:56.966Z,24.24
2016-10-18T00:35:08.202Z,24.24
2016-10-18T00:36:19.305Z,24.2
2016-10-18T00:37:30.037Z,24.24
2016-10-18T00:38:40.718Z,24.22
2016-10-18T00:39:51.463Z,24.24
2016-10-18T00:41:02.706Z,24.2
2016-10-18T00:42:13.456Z,24.15
2016-10-18T00:43:24.173Z,24.24
2016-10-18T00:44:34.881Z,24.15
2016-10-18T00:45:45.644Z,24.09
2016-10-18T00:46:56.393Z,24.08
2016-10-18T00:48:07.133Z,24.06
2016-10-18T00:49:17.887Z,23.93
2016-10-18T00:50:29.111Z,23.98
2016-10-18T00:51:39.810Z,23.93
2016-10-18T00:52:50.542Z,23.95
2016-10-18T00:54:01.262Z,23.91
2016-10-18T00:55:11.966Z,23.88
2016-10-18T00:56:22.671Z,23.87
2016-10-18T00:57:33.380Z,23.9
2016-10-18T00:58:44.121Z,23.84
2016-10-18T00:59:54.845Z,23.84
2016-10-18T01:01:05.564Z,23.76
2016-10-18T01:02:16.267Z,23.73
2016-10-18T01:03:26.961Z,23.66
2016-10-18T01:04:37.669Z,23.73
2016-10-18T01:05:48.361Z,23.65
2016-10-18T01:06:59.044Z,23.6
2016-10-18T01:08:09.797Z,23.57
2016-10-18T01:09:20.558Z,23.54
2016-10-18T01:10:31.313Z,23.55
2016-10-18T01:11:42.090Z,23.5
2016-10-18T01:12:52.839Z,23.58
2016-10-18T01:14:03.558Z,23.61
2016-10-18T01:15:14.279Z,23.65
2016-10-18T01:16:24.994Z,23.57
2016-10-18T01:17:35.696Z,23.6
2016-10-18T01:18:46.443Z,23.57
2016-10-18T01:19:57.685Z,23.57
2016-10-18T01:21:08.445Z,23.51
2016-10-18T01:22:19.213Z,23.61
2016-10-18T01:23:29.925Z,23.5
2016-10-18T01:24:40.687Z,23.47
2016-10-18T01:25:51.405Z,23.38
2016-10-18T01:27:02.108Z,23.23
2016-10-18T01:28:12.811Z,23.23
2016-10-18T01:29:23.565Z,23.04
2016-10-18T01:30:34.272Z,22.97
2016-10-18T01:31:44.984Z,22.82
2016-10-18T01:32:55.684Z,22.83
2016-10-18T01:34:06.443Z,22.72
2016-10-18T01:35:17.155Z,22.8
2016-10-18T01:36:27.861Z,22.65
2016-10-18T01:37:38.607Z,22.55
2016-10-18T01:38:49.299Z,22.47
2016-10-18T01:40:00.034Z,22.45
2016-10-18T01:41:10.727Z,22.4
2016-10-18T01:42:21.442Z,22.35
2016-10-18T01:43:32.146Z,22.24
2016-10-18T01:44:42.882Z,22.15
2016-10-18T01:45:53.589Z,22.09
2016-10-18T01:47:04.279Z,21.96
2016-10-18T01:48:14.970Z,21.94
2016-10-18T01:49:25.700Z,21.88
2016-10-18T01:50:36.412Z,21.83
2016-10-18T01:51:47.652Z,21.75
2016-10-18T01:52:58.350Z,21.71
2016-10-18T01:54:09.069Z,21.74
2016-10-18T01:55:19.770Z,21.64
2016-10-18T01:56:30.451Z,21.58
2016-10-18T01:57:41.245Z,21.54
2016-10-18T01:58:51.984Z,21.54
2016-10-18T02:00:02.726Z,21.5
2016-10-18T02:01:13.463Z,21.5
2016-10-18T02:02:24.167Z,21.4
2016-10-18T02:03:34.895Z,21.37
2016-10-18T02:04:45.591Z,21.37
2016-10-18T02:05:56.322Z,21.34
2016-10-18T02:07:07.023Z,21.34
2016-10-18T02:08:17.762Z,21.43
2016-10-18T02:09:28.462Z,21.34
2016-10-18T02:10:39.173Z,21.44
2016-10-18T02:11:49.882Z,21.44
2016-10-18T02:13:00.598Z,21.43
2016-10-18T02:14:11.279Z,21.49
2016-10-18T02:15:21.979Z,21.43
2016-10-18T02:16:32.735Z,21.52
2016-10-18T02:17:43.446Z,21.52
2016-10-18T02:18:54.154Z,21.47
2016-10-18T02:20:04.862Z,21.59
2016-10-18T02:21:15.599Z,21.52
2016-10-18T02:22:26.328Z,21.42
2016-10-18T02:23:37.084Z,21.47
2016-10-18T02:24:47.810Z,21.49
2016-10-18T02:25:58.553Z,21.47
2016-10-18T02:27:09.268Z,21.49
2016-10-18T02:28:20.001Z,21.53
2016-10-18T02:29:30.703Z,21.54
2016-10-18T02:30:41.944Z,21.46
2016-10-18T02:31:52.664Z,21.49
2016-10-18T02:33:03.361Z,21.5
2016-10-18T02:34:14.057Z,21.56
2016-10-18T02:35:24.738Z,21.58
2016-10-18T02:36:35.439Z,21.46
2016-10-18T02:37:46.133Z,21.54
2016-10-18T02:38:56.840Z,21.49
2016-10-18T02:40:07.628Z,21.47
2016-10-18T02:41:18.319Z,21.5
2016-10-18T02:42:29.012Z,21.47
2016-10-18T02:43:39.754Z,21.43
2016-10-18T02:44:50.527Z,21.42
2016-10-18T02:46:01.207Z,21.44
2016-10-18T02:47:12.421Z,21.34
2016-10-18T02:48:23.121Z,21.34
2016-10-18T02:49:33.864Z,21.21
2016-10-18T02:50:44.536Z,21.1
2016-10-18T02:51:55.227Z,21.06
2016-10-18T02:53:05.933Z,20.92
2016-10-18T02:54:16.673Z,20.95
2016-10-18T02:55:27.409Z,20.95
2016-10-18T02:56:38.127Z,20.95
2016-10-18T02:57:48.851Z,20.91
2016-10-18T02:58:59.559Z,20.91
2016-10-18T03:00:10.315Z,20.92
2016-10-18T03:01:21.034Z,20.89
2016-10-18T03:02:31.724Z,20.92
2016-10-18T03:03:42.423Z,20.98
2016-10-18T03:04:53.123Z,20.95
2016-10-18T03:06:03.850Z,20.91
2016-10-18T03:07:14.541Z,20.85
2016-10-18T03:08:25.278Z,20.76
2016-10-18T03:09:36.017Z,20.87
2016-10-18T03:10:47.258Z,20.76
2016-10-18T03:11:57.966Z,20.8
2016-10-18T03:13:08.691Z,20.77
2016-10-18T03:14:19.504Z,20.64
2016-10-18T03:15:30.178Z,20.62
2016-10-18T03:16:40.919Z,20.64
2016-10-18T03:17:51.600Z,20.59
2016-10-18T03:19:02.353Z,20.55
2016-10-18T03:20:13.105Z,20.55
2016-10-18T03:21:24.297Z,20.52
2016-10-18T03:22:35.067Z,20.47
2016-10-18T03:23:46.274Z,20.43
2016-10-18T03:24:56.989Z,20.48
2016-10-18T03:26:07.731Z,20.48
2016-10-18T03:27:18.432Z,20.48
2016-10-18T03:28:29.170Z,20.5
2016-10-18T03:29:39.911Z,20.5
2016-10-18T03:30:50.630Z,20.36
2016-10-18T03:32:01.329Z,20.38
2016-10-18T03:33:12.030Z,20.33
2016-10-18T03:34:23.859Z,20.41
2016-10-18T03:35:34.598Z,20.32
2016-10-18T03:36:45.301Z,20.39
2016-10-18T03:37:55.991Z,20.33
2016-10-18T03:39:07.244Z,20.29
2016-10-18T03:40:18.001Z,20.23
2016-10-18T03:41:28.747Z,20.26
2016-10-18T03:42:39.486Z,20.26
2016-10-18T03:43:50.197Z,20.24
2016-10-18T03:45:01.450Z,20.31
2016-10-18T03:46:12.159Z,20.32
2016-10-18T03:47:22.872Z,20.32
2016-10-18T03:48:33.615Z,20.41
2016-10-18T03:49:44.332Z,20.31
2016-10-18T03:50:55.053Z,20.28
2016-10-18T03:52:06.247Z,20.26
2016-10-18T03:53:16.979Z,20.38
2016-10-18T03:54:27.669Z,20.39
2016-10-18T03:55:38.372Z,20.39
2016-10-18T03:56:49.062Z,20.39
2016-10-18T03:57:59.779Z,20.41
2016-10-18T03:59:10.465Z,20.32
2016-10-18T04:00:21.163Z,20.39
2016-10-18T04:01:31.863Z,20.43
2016-10-18T04:02:42.568Z,20.42
2016-10-18T04:03:53.292Z,20.47
2016-10-18T04:05:04.067Z,20.48
2016-10-18T04:06:14.835Z,20.5
2016-10-18T04:07:25.573Z,20.55
2016-10-18T04:08:36.295Z,20.52
2016-10-18T04:09:47.048Z,20.43
2016-10-18T04:10:57.773Z,20.58
2016-10-18T04:12:08.516Z,20.58
2016-10-18T04:13:19.236Z,20.55
2016-10-18T04:14:29.927Z,20.47
2016-10-18T04:15:40.668Z,20.42
2016-10-18T04:16:51.411Z,20.48
2016-10-18T04:18:02.163Z,20.41
2016-10-18T04:19:12.880Z,20.35
2016-10-18T04:20:24.083Z,20.39
2016-10-18T04:21:34.821Z,20.47
2016-10-18T04:22:45.606Z,20.54
2016-10-18T04:23:56.307Z,20.5
2016-10-18T04:25:07.026Z,20.41
2016-10-18T04:26:17.726Z,20.47
2016-10-18T04:27:28.435Z,20.51
2016-10-18T04:28:39.126Z,20.5
2016-10-18T04:29:50.368Z,20.42
2016-10-18T04:31:01.069Z,20.41
2016-10-18T04:32:11.773Z,20.47
2016-10-18T04:33:22.449Z,20.5
2016-10-18T04:34:33.139Z,20.48
2016-10-18T04:35:43.835Z,20.5
2016-10-18T04:36:54.545Z,20.41
2016-10-18T04:38:05.307Z,20.35
2016-10-18T04:39:15.995Z,20.39
2016-10-18T04:40:26.734Z,20.39
2016-10-18T04:41:37.426Z,20.31
2016-10-18T04:42:48.124Z,20.43
2016-10-18T04:43:58.823Z,20.35
2016-10-18T04:45:09.556Z,20.29
2016-10-18T04:46:20.280Z,20.31
2016-10-18T04:47:31.017Z,20.31
2016-10-18T04:48:41.709Z,20.26
2016-10-18T04:49:52.433Z,20.29
2016-10-18T04:51:03.669Z,20.35
2016-10-18T04:52:14.394Z,20.32
2016-10-18T04:53:25.168Z,20.29
2016-10-18T04:54:36.371Z,20.33
2016-10-18T04:55:47.070Z,20.33
2016-10-18T04:56:58.266Z,20.39
2016-10-18T04:58:08.972Z,20.36
2016-10-18T04:59:19.683Z,20.29
2016-10-18T05:00:30.364Z,20.47
2016-10-18T05:01:41.048Z,20.5
2016-10-18T05:02:51.726Z,20.48
2016-10-18T05:04:02.471Z,20.48
2016-10-18T05:05:13.237Z,20.47
2016-10-18T05:06:23.970Z,20.48
2016-10-18T05:07:34.918Z,20.43
2016-10-18T05:08:46.137Z,20.41
2016-10-18T05:09:56.850Z,20.5
2016-10-18T05:11:07.535Z,20.5
2016-10-18T05:12:18.243Z,20.41
2016-10-18T05:13:28.974Z,20.43
2016-10-18T05:14:39.668Z,20.41
2016-10-18T05:15:50.360Z,20.38
2016-10-18T05:17:01.059Z,20.48
2016-10-18T05:18:11.728Z,20.47
2016-10-18T05:19:22.428Z,20.42
2016-10-18T05:20:33.143Z,20.5
2016-10-18T05:21:43.854Z,20.41
2016-10-18T05:22:54.549Z,20.48
2016-10-18T05:24:05.239Z,20.41
2016-10-18T05:25:15.942Z,20.41
2016-10-18T05:26:26.631Z,20.41
2016-10-18T05:27:37.337Z,20.54
2016-10-18T05:28:48.083Z,20.54
2016-10-18T05:29:58.775Z,20.48
2016-10-18T05:31:09.457Z,20.59
2016-10-18T05:32:20.163Z,20.5
2016-10-18T05:33:30.917Z,20.66
2016-10-18T05:34:41.611Z,20.62
2016-10-18T05:35:52.302Z,20.7
2016-10-18T05:37:02.998Z,20.59
2016-10-18T05:38:13.692Z,20.52
2016-10-18T05:39:24.376Z,20.59
2016-10-18T05:40:35.099Z,20.62
2016-10-18T05:41:46.315Z,20.48
2016-10-18T05:42:56.998Z,20.58
2016-10-18T05:44:07.712Z,20.55
2016-10-18T05:45:19.820Z,20.5
2016-10-18T05:46:31.015Z,20.48
2016-10-18T05:47:41.711Z,20.5
2016-10-18T05:48:52.927Z,20.5
2016-10-18T05:50:03.620Z,20.39
2016-10-18T05:51:14.324Z,20.29
2016-10-18T05:52:25.020Z,20.41
2016-10-18T05:53:35.712Z,20.39
2016-10-18T05:54:46.431Z,20.39
2016-10-18T05:55:57.107Z,20.41
2016-10-18T05:57:07.833Z,20.42
2016-10-18T05:58:18.560Z,20.42
2016-10-18T05:59:29.248Z,20.59
2016-10-18T06:00:39.953Z,20.59
2016-10-18T06:01:50.693Z,20.55
2016-10-18T06:03:01.421Z,20.58
2016-10-18T06:04:12.118Z,20.58
2016-10-18T06:05:23.330Z,20.52
2016-10-18T06:06:34.040Z,20.58
2016-10-18T06:07:44.760Z,20.54
2016-10-18T06:08:55.466Z,20.61
2016-10-18T06:10:06.230Z,20.58
2016-10-18T06:11:16.978Z,20.58
2016-10-18T06:12:27.675Z,20.55
2016-10-18T06:13:38.395Z,20.52
2016-10-18T06:14:49.102Z,20.57
2016-10-18T06:15:59.982Z,20.64
2016-10-18T06:17:10.776Z,20.61
2016-10-18T06:18:21.458Z,20.5
2016-10-18T06:19:32.206Z,20.52
2016-10-18T06:20:42.904Z,20.47
2016-10-18T06:21:53.632Z,20.55
2016-10-18T06:23:04.331Z,20.58
2016-10-18T06:24:15.069Z,20.62
2016-10-18T06:25:25.880Z,20.58
2016-10-18T06:26:36.593Z,20.55
2016-10-18T06:27:47.341Z,20.58
2016-10-18T06:28:58.059Z,20.52
2016-10-18T06:30:08.771Z,20.61
2016-10-18T06:31:19.471Z,20.42
2016-10-18T06:32:30.174Z,20.58
2016-10-18T06:33:40.886Z,20.5
2016-10-18T06:34:51.604Z,20.54
2016-10-18T06:36:02.314Z,20.62
2016-10-18T06:37:13.030Z,20.7
2016-10-18T06:38:24.231Z,20.61
2016-10-18T06:39:34.941Z,20.64
2016-10-18T06:40:45.685Z,20.59
2016-10-18T06:41:56.370Z,20.69
2016-10-18T06:43:07.085Z,20.62
2016-10-18T06:44:17.785Z,20.62
2016-10-18T06:45:28.488Z,20.54
2016-10-18T06:46:39.262Z,20.5
2016-10-18T06:47:49.981Z,20.57
2016-10-18T06:49:00.684Z,20.55
2016-10-18T06:50:11.457Z,20.61
2016-10-18T06:51:22.183Z,20.55
2016-10-18T06:52:32.873Z,20.59
2016-10-18T06:53:43.574Z,20.59
2016-10-18T06:54:54.292Z,20.67
2016-10-18T06:56:05.005Z,20.69
2016-10-18T06:57:15.711Z,20.52
2016-10-18T06:58:26.405Z,20.66
2016-10-18T06:59:37.131Z,20.5
2016-10-18T07:00:47.838Z,20.54
2016-10-18T07:01:58.517Z,20.57
2016-10-18T07:03:09.243Z,20.67
2016-10-18T07:04:19.971Z,20.67
2016-10-18T07:05:30.674Z,20.62
2016-10-18T07:06:41.399Z,20.62
2016-10-18T07:07:52.117Z,20.64
2016-10-18T07:09:02.846Z,20.67
2016-10-18T07:10:13.609Z,20.5
2016-10-18T07:11:24.314Z,20.57
2016-10-18T07:12:35.038Z,20.59
2016-10-18T07:13:45.736Z,20.55
2016-10-18T07:14:56.441Z,20.55
2016-10-18T07:16:07.162Z,20.58
2016-10-18T07:17:17.883Z,20.43
2016-10-18T07:18:28.604Z,20.55
2016-10-18T07:19:39.312Z,20.51
2016-10-18T07:20:50.055Z,20.51
2016-10-18T07:22:00.769Z,20.62
2016-10-18T07:23:11.489Z,20.51
2016-10-18T07:24:22.233Z,20.61
2016-10-18T07:25:32.988Z,20.48
2016-10-18T07:26:43.691Z,20.43
2016-10-18T07:27:54.405Z,20.39
2016-10-18T07:29:05.108Z,20.51
2016-10-18T07:30:15.803Z,20.47
2016-10-18T07:31:26.550Z,20.42
2016-10-18T07:32:37.299Z,20.39
2016-10-18T07:33:48.020Z,20.47
2016-10-18T07:34:58.711Z,20.41
2016-10-18T07:36:09.429Z,20.43
2016-10-18T07:37:20.127Z,20.42
2016-10-18T07:38:30.826Z,20.48
2016-10-18T07:39:41.553Z,20.51
2016-10-18T07:40:52.321Z,20.36
2016-10-18T07:42:03.046Z,20.29
2016-10-18T07:43:13.760Z,20.33
2016-10-18T07:44:24.452Z,20.28
2016-10-18T07:45:35.183Z,20.31
2016-10-18T07:46:45.931Z,20.05
2016-10-18T07:47:56.627Z,19.96
2016-10-18T07:49:07.332Z,19.99
2016-10-18T07:50:18.053Z,19.87
2016-10-18T07:51:28.764Z,19.81
2016-10-18T07:52:39.489Z,19.86
2016-10-18T07:53:50.194Z,19.83
2016-10-18T07:55:00.903Z,19.86
2016-10-18T07:56:11.593Z,19.81
2016-10-18T07:57:22.278Z,19.81
2016-10-18T07:58:33.063Z,19.88
2016-10-18T07:59:43.783Z,19.87
2016-10-18T08:00:54.509Z,20.01
2016-10-18T08:02:05.192Z,19.98
2016-10-18T08:03:16.406Z,20.01
2016-10-18T08:04:27.111Z,20.01
2016-10-18T08:05:37.805Z,19.99
2016-10-18T08:06:48.575Z,20.03
2016-10-18T08:07:59.300Z,19.98
2016-10-18T08:09:10.760Z,20.06
2016-10-18T08:10:21.679Z,20.08
2016-10-18T08:11:32.922Z,20.01
2016-10-18T08:12:43.638Z,19.96
2016-10-18T08:13:54.347Z,20.02
2016-10-18T08:15:05.035Z,20.02
2016-10-18T08:16:15.739Z,20.1
2016-10-18T08:17:26.447Z,20.02
2016-10-18T08:18:37.155Z,20.03
2016-10-18T08:19:47.856Z,20.05
2016-10-18T08:20:58.548Z,19.86
2016-10-18T08:22:09.274Z,19.88
2016-10-18T08:23:19.970Z,19.78
2016-10-18T08:24:30.811Z,19.87
2016-10-18T08:25:42.022Z,20.02
2016-10-18T08:26:52.776Z,19.96
2016-10-18T08:28:03.480Z,20.01
2016-10-18T08:29:14.226Z,19.98
2016-10-18T08:30:24.948Z,19.98
2016-10-18T08:31:35.641Z,20.08
2016-10-18T08:32:46.353Z,20.13
2016-10-18T08:33:57.057Z,20.13
2016-10-18T08:35:07.773Z,20.18
2016-10-18T08:36:18.479Z,20.21
2016-10-18T08:37:29.176Z,20.05
2016-10-18T08:38:39.900Z,20.24
2016-10-18T08:39:50.628Z,20.28
2016-10-18T08:41:01.325Z,20.26
2016-10-18T08:42:12.051Z,20.26
2016-10-18T08:43:22.764Z,20.35
2016-10-18T08:44:33.479Z,20.47
2016-10-18T08:45:44.695Z,20.39
2016-10-18T08:46:55.424Z,20.48
2016-10-18T08:48:06.656Z,20.54
2016-10-18T08:49:17.376Z,20.54
2016-10-18T08:50:28.123Z,20.5
2016-10-18T08:51:38.847Z,20.66
2016-10-18T08:52:49.556Z,20.62
2016-10-18T08:54:00.250Z,20.59
2016-10-18T08:55:10.942Z,20.69
2016-10-18T08:56:21.688Z,20.62
2016-10-18T08:57:32.421Z,20.72
2016-10-18T08:58:43.127Z,20.64
2016-10-18T08:59:53.817Z,20.69
2016-10-18T09:01:04.581Z,20.59
2016-10-18T09:02:15.311Z,20.77
2016-10-18T09:03:26.039Z,20.73
2016-10-18T09:04:36.789Z,20.76
2016-10-18T09:05:47.509Z,20.8
2016-10-18T09:06:58.213Z,20.82
2016-10-18T09:08:08.911Z,20.92
2016-10-18T09:09:19.618Z,20.95
2016-10-18T09:10:30.312Z,20.98
2016-10-18T09:11:41.011Z,21.01
2016-10-18T09:12:51.789Z,21.1
2016-10-18T09:14:02.498Z,21.1
2016-10-18T09:15:13.217Z,21.07
2016-10-18T09:16:23.897Z,21.06
2016-10-18T09:17:34.601Z,21.13
2016-10-18T09:18:45.311Z,21.13
2016-10-18T09:19:56.030Z,21.09
2016-10-18T09:21:06.740Z,21.1
2016-10-18T09:22:17.958Z,21.12
2016-10-18T09:23:28.666Z,21.12
2016-10-18T09:24:39.361Z,21.12
2016-10-18T09:25:50.063Z,21.24
2016-10-18T09:27:00.767Z,21.27
2016-10-18T09:28:11.467Z,21.34
2016-10-18T09:29:22.230Z,21.4
2016-10-18T09:30:32.954Z,21.4
2016-10-18T09:31:43.638Z,21.47
2016-10-18T09:32:54.382Z,21.49
2016-10-18T09:34:05.089Z,21.52
2016-10-18T09:35:15.802Z,21.62
2016-10-18T09:36:26.547Z,21.62
2016-10-18T09:37:37.237Z,21.68
2016-10-18T09:38:47.960Z,21.75
2016-10-18T09:39:58.716Z,21.79
2016-10-18T09:41:09.973Z,21.83
2016-10-18T09:42:20.672Z,21.88
2016-10-18T09:43:31.382Z,21.83
2016-10-18T09:44:42.075Z,21.92
2016-10-18T09:45:52.818Z,22.1
2016-10-18T09:47:03.509Z,22.21
2016-10-18T09:48:14.230Z,22.33
2016-10-18T09:49:24.969Z,22.39
2016-10-18T09:50:35.688Z,22.4
2016-10-18T09:51:46.391Z,22.42
2016-10-18T09:52:57.118Z,22.45
2016-10-18T09:54:07.834Z,22.51
2016-10-18T09:55:18.556Z,22.33
2016-10-18T09:56:29.302Z,22.3
2016-10-18T09:57:40.548Z,22.39
2016-10-18T09:58:51.262Z,22.57
2016-10-18T10:00:01.979Z,22.62
2016-10-18T10:01:12.700Z,22.77
2016-10-18T10:02:23.406Z,22.88
2016-10-18T10:03:34.124Z,23.01
2016-10-18T10:04:44.877Z,23.16
2016-10-18T10:05:55.593Z,23.46
2016-10-18T10:07:06.302Z,23.6
2016-10-18T10:08:16.998Z,23.76
2016-10-18T10:09:27.721Z,23.66
2016-10-18T10:10:38.422Z,23.54
2016-10-18T10:11:49.109Z,23.31
2016-10-18T10:12:59.824Z,23.15
2016-10-18T10:14:10.548Z,23.02
2016-10-18T10:15:21.300Z,22.8
2016-10-18T10:16:32.172Z,22.75
2016-10-18T10:17:42.872Z,22.8
2016-10-18T10:18:53.577Z,22.88
2016-10-18T10:20:04.315Z,23.09
2016-10-18T10:21:14.991Z,23.48
2016-10-18T10:22:26.220Z,23.35
2016-10-18T10:23:36.940Z,23.2
2016-10-18T10:24:47.646Z,23.02
2016-10-18T10:25:59.773Z,23.1
2016-10-18T10:27:10.482Z,23.2
2016-10-18T10:28:21.199Z,23.22
2016-10-18T10:29:31.948Z,23.36
2016-10-18T10:30:42.658Z,23.33
2016-10-18T10:31:53.868Z,23.36
2016-10-18T10:33:04.597Z,23.31
2016-10-18T10:34:15.817Z,23.35
2016-10-18T10:35:26.537Z,23.28
2016-10-18T10:36:37.262Z,23.32
2016-10-18T10:37:48.507Z,23.4
2016-10-18T10:38:59.204Z,23.46
2016-10-18T10:40:09.911Z,23.5
2016-10-18T10:41:20.666Z,23.54
2016-10-18T10:42:31.370Z,23.58
2016-10-18T10:43:42.070Z,23.6
2016-10-18T10:44:52.804Z,23.65
2016-10-18T10:46:03.548Z,23.68
2016-10-18T10:47:14.288Z,23.68
2016-10-18T10:48:25.039Z,23.84
2016-10-18T10:49:35.778Z,23.84
2016-10-18T10:50:46.481Z,23.88
2016-10-18T10:51:57.217Z,23.94
2016-10-18T10:53:07.937Z,23.98
2016-10-18T10:54:18.646Z,24.13
2016-10-18T10:55:29.373Z,24.39
2016-10-18T10:56:40.127Z,24.65
2016-10-18T10:57:50.822Z,25.02
2016-10-18T10:59:01.534Z,25.03
2016-10-18T11:00:12.263Z,25.05
2016-10-18T11:01:23.013Z,25.03
2016-10-18T11:02:33.788Z,25.33
2016-10-18T11:03:44.525Z,25.43
2016-10-18T11:04:55.245Z,25.5
2016-10-18T11:06:05.971Z,25.42
2016-10-18T11:07:16.667Z,25.45
2016-10-18T11:08:27.415Z,25.64
2016-10-18T11:09:38.119Z,25.7
2016-10-18T11:10:48.828Z,26.02
2016-10-18T11:11:59.748Z,26.06
2016-10-18T11:13:10.478Z,26.15
2016-10-18T11:14:21.203Z,25.97
2016-10-18T11:15:31.932Z,25.8
2016-10-18T11:16:42.678Z,26.06
2016-10-18T11:17:53.426Z,26.1
2016-10-18T11:19:04.179Z,26.28
2016-10-18T11:20:14.897Z,26.58
2016-10-18T11:21:25.632Z,26.63
2016-10-18T11:22:36.371Z,26.6
2016-10-18T11:23:47.082Z,26.69
2016-10-18T11:24:57.797Z,27.04
2016-10-18T11:26:08.563Z,27.22
2016-10-18T11:27:19.268Z,27.46
2016-10-18T11:28:29.969Z,27.7
2016-10-18T11:29:40.682Z,27.93
2016-10-18T11:30:51.475Z,27.57
2016-10-18T11:32:02.232Z,27.22
2016-10-18T11:33:13.297Z,27.31
2016-10-18T11:34:24.037Z,27.47
2016-10-18T11:35:34.770Z,27.47
2016-10-18T11:36:45.592Z,27.67
2016-10-18T11:37:56.339Z,27.93
2016-10-18T11:39:07.068Z,27.79
2016-10-18T11:40:17.805Z,27.81
2016-10-18T11:41:28.517Z,27.7
2016-10-18T11:42:39.239Z,27.77
2016-10-18T11:43:49.962Z,27.44
2016-10-18T11:45:00.711Z,27.34
2016-10-18T11:46:11.418Z,27.34
2016-10-18T11:47:22.122Z,27.36
2016-10-18T11:48:32.871Z,27.37
2016-10-18T11:49:44.107Z,27.6
2016-10-18T11:50:54.815Z,27.75
2016-10-18T11:52:05.557Z,27.9
2016-10-18T11:53:16.350Z,28.18
2016-10-18T11:54:27.065Z,28.34
2016-10-18T11:55:37.806Z,28.44
2016-10-18T11:56:48.532Z,28.74
2016-10-18T11:57:59.276Z,28.95
2016-10-18T11:59:10.019Z,29.34
2016-10-18T12:00:20.746Z,29.79
2016-10-18T12:01:32.003Z,29.79
2016-10-18T12:02:42.720Z,29.74
2016-10-18T12:03:53.442Z,29.8
2016-10-18T12:05:04.127Z,29.94
2016-10-18T12:06:14.841Z,29.67
2016-10-18T12:07:25.576Z,29.49
2016-10-18T12:08:36.284Z,29.19
2016-10-18T12:09:47.000Z,29.18
2016-10-18T12:10:57.712Z,29.23
2016-10-18T12:12:08.428Z,29.14
2016-10-18T12:13:19.138Z,29.33
2016-10-18T12:14:29.874Z,29.45
2016-10-18T12:15:40.594Z,29.18
2016-10-18T12:16:51.580Z,28.9
2016-10-18T12:18:03.417Z,28.96
2016-10-18T12:19:14.616Z,28.98
2016-10-18T12:20:26.036Z,28.7
2016-10-18T12:21:37.188Z,28.51
2016-10-18T12:22:48.365Z,28.61
2016-10-18T12:23:59.576Z,29.05
2016-10-18T12:25:10.771Z,29.42
2016-10-18T12:26:21.992Z,29.73
2016-10-18T12:27:33.185Z,30
2016-10-18T12:28:44.372Z,29.7
2016-10-18T12:29:55.670Z,29.41
2016-10-18T12:31:06.891Z,29.71
2016-10-18T12:32:18.139Z,29.8
2016-10-18T12:33:29.593Z,29.86
2016-10-18T12:34:40.778Z,29.78
2016-10-18T12:35:51.984Z,29.45
2016-10-18T12:37:03.297Z,29.39
2016-10-18T12:38:14.464Z,29.57
2016-10-18T12:39:25.654Z,29.73
2016-10-18T12:40:36.852Z,29.71
2016-10-18T12:41:48.038Z,29.78
2016-10-18T12:42:59.212Z,29.76
2016-10-18T12:44:10.398Z,29.78
2016-10-18T12:45:21.618Z,30.1
2016-10-18T12:46:32.800Z,29.94
2016-10-18T12:47:43.983Z,30.19
2016-10-18T12:48:55.171Z,30.27
2016-10-18T12:50:06.447Z,30.29
2016-10-18T12:51:17.652Z,30.34
2016-10-18T12:52:28.845Z,30.62
2016-10-18T12:53:40.046Z,30.47
2016-10-18T12:54:51.237Z,30.24
2016-10-18T12:56:02.456Z,30.02
2016-10-18T12:57:13.680Z,30.01
2016-10-18T12:58:24.883Z,29.98
2016-10-18T12:59:36.102Z,29.85
2016-10-18T13:00:47.296Z,30.23
2016-10-18T13:01:58.724Z,30.22
2016-10-18T13:03:09.473Z,30.19
2016-10-18T13:04:20.197Z,29.87
2016-10-18T13:05:30.953Z,30.02
2016-10-18T13:06:41.675Z,30.19
2016-10-18T13:07:52.423Z,30.46
2016-10-18T13:09:03.566Z,30.58
2016-10-18T13:10:14.415Z,30.83
2016-10-18T13:11:25.137Z,31.26
2016-10-18T13:12:35.855Z,31.44
2016-10-18T13:13:46.640Z,31.5
2016-10-18T13:14:57.346Z,31.61
2016-10-18T13:16:08.053Z,31.78
2016-10-18T13:17:19.324Z,31.68
2016-10-18T13:18:30.349Z,31.69
2016-10-18T13:19:41.597Z,31.95
2016-10-18T13:20:52.319Z,31.93
2016-10-18T13:22:03.036Z,31.8
2016-10-18T13:23:13.761Z,31.92
2016-10-18T13:24:25.047Z,31.7
2016-10-18T13:25:35.751Z,31.78
2016-10-18T13:26:46.502Z,31.99
2016-10-18T13:27:57.754Z,31.84
2016-10-18T13:29:08.484Z,31.62
2016-10-18T13:30:19.441Z,31.61
2016-10-18T13:31:30.688Z,31.2
2016-10-18T13:32:41.696Z,31.16
2016-10-18T13:33:52.431Z,31.1
2016-10-18T13:35:03.148Z,31.16
2016-10-18T13:36:14.507Z,31.25
2016-10-18T13:37:25.214Z,31.36
2016-10-18T13:38:35.940Z,31.16
2016-10-18T13:39:46.714Z,31.12
2016-10-18T13:40:57.983Z,31.07
2016-10-18T13:42:08.716Z,31.2
2016-10-18T13:43:19.953Z,31.65
2016-10-18T13:44:30.676Z,31.8
2016-10-18T13:45:41.418Z,32
2016-10-18T13:46:52.712Z,32.43
2016-10-18T13:48:03.491Z,32.3
2016-10-18T13:49:14.772Z,32.25
2016-10-18T13:50:26.848Z,31.95
2016-10-18T13:51:37.533Z,31.72
2016-10-18T13:52:48.245Z,31.65
2016-10-18T13:53:59.010Z,31.84
2016-10-18T13:55:09.712Z,31.84
2016-10-18T13:56:20.937Z,32.03
2016-10-18T13:57:32.329Z,32.08
2016-10-18T13:58:43.046Z,32.23
2016-10-18T13:59:53.780Z,32.25
2016-10-18T14:01:04.511Z,32.57
2016-10-18T14:02:15.213Z,32.28
2016-10-18T14:03:25.946Z,32.41
2016-10-18T14:04:36.697Z,32.56
2016-10-18T14:05:47.456Z,32.4
2016-10-18T14:06:58.217Z,32.22
2016-10-18T14:08:08.934Z,32.56
2016-10-18T14:09:19.667Z,32.78
2016-10-18T14:10:30.395Z,33.06
2016-10-18T14:11:41.102Z,33.49
2016-10-18T14:12:51.842Z,33.39
2016-10-18T14:14:02.586Z,33.16
2016-10-18T14:15:13.909Z,33.01
2016-10-18T14:16:25.161Z,32.74
2016-10-18T14:17:35.871Z,32.82
2016-10-18T14:18:46.609Z,33.09
2016-10-18T14:19:57.384Z,33.15
2016-10-18T14:21:08.132Z,33.06
2016-10-18T14:22:18.896Z,33.03
2016-10-18T14:23:29.587Z,32.74
2016-10-18T14:24:40.821Z,32.59
2016-10-18T14:25:51.525Z,32.81
2016-10-18T14:27:02.258Z,32.77
2016-10-18T14:28:13.008Z,32.77
2016-10-18T14:29:23.744Z,33
2016-10-18T14:30:34.470Z,33.41
2016-10-18T14:31:45.725Z,33.41
2016-10-18T14:32:56.461Z,33.69
2016-10-18T14:34:07.231Z,33.98
2016-10-18T14:35:17.917Z,34.31
2016-10-18T14:36:28.647Z,34.89
2016-10-18T14:37:39.359Z,34.81
2016-10-18T14:38:50.093Z,34.82
2016-10-18T14:40:00.822Z,34.99
2016-10-18T14:41:11.534Z,34.88
2016-10-18T14:42:22.790Z,34.32
2016-10-18T14:43:33.534Z,34.15
2016-10-18T14:44:44.815Z,34.24
2016-10-18T14:45:55.565Z,34.78
2016-10-18T14:47:06.292Z,34.89
2016-10-18T14:48:17.013Z,34.44
2016-10-18T14:49:27.746Z,34.35
2016-10-18T14:50:38.998Z,33.69
2016-10-18T14:51:49.730Z,33.68
2016-10-18T14:53:00.451Z,33.82
2016-10-18T14:54:11.184Z,34.19
2016-10-18T14:55:21.936Z,34.73
2016-10-18T14:56:32.656Z,34.56
2016-10-18T14:57:43.392Z,34.21
2016-10-18T14:58:54.160Z,33.91
2016-10-18T15:00:06.294Z,33.94
2016-10-18T15:01:17.032Z,34.3
2016-10-18T15:02:27.766Z,34.34
2016-10-18T15:03:38.491Z,35
2016-10-18T15:04:49.218Z,35.66
2016-10-18T15:05:59.958Z,35.63
2016-10-18T15:07:10.674Z,35.14
2016-10-18T15:08:21.423Z,35.19
2016-10-18T15:09:32.184Z,35.34
2016-10-18T15:10:42.902Z,35.04
2016-10-18T15:11:53.640Z,34.65
2016-10-18T15:13:04.366Z,34.87
2016-10-18T15:14:15.121Z,35.38
2016-10-18T15:15:25.839Z,35.93